createdAt,value
2023-01-29T00:00:48.180Z,13.80
2023-01-29T00:03:42.025Z,11.60
2023-01-29T00:06:15.715Z,14.10
2023-01-29T00:08:50.040Z,12.70
2023-01-29T00:11:24.497Z,9.70
2023-01-29T00:13:58.356Z,10.40
2023-01-29T00:16:31.928Z,10.50
2023-01-29T00:19:07.199Z,9.70
2023-01-29T00:21:41.023Z,9.00
2023-01-29T00:24:15.102Z,9.50
2023-01-29T00:26:50.419Z,9.60
2023-01-29T00:29:24.055Z,10.00
2023-01-29T00:31:58.512Z,10.50
2023-01-29T00:34:32.411Z,10.20
2023-01-29T00:37:06.827Z,11.00
2023-01-29T00:39:47.889Z,12.70
2023-01-29T00:42:40.061Z,10.50
2023-01-29T00:45:14.814Z,8.60
2023-01-29T00:47:48.841Z,9.80
2023-01-29T00:50:22.635Z,8.80
2023-01-29T00:52:55.999Z,9.40
2023-01-29T00:55:29.977Z,9.60
2023-01-29T00:58:04.092Z,13.80
2023-01-29T01:00:37.560Z,8.30
2023-01-29T01:03:11.879Z,10.30
2023-01-29T01:05:48.219Z,9.50
2023-01-29T01:08:39.029Z,10.80
2023-01-29T01:11:13.276Z,10.20
2023-01-29T01:13:47.665Z,10.50
2023-01-29T01:16:21.654Z,9.40
2023-01-29T01:18:55.321Z,9.90
2023-01-29T01:21:29.281Z,11.20
2023-01-29T01:24:06.240Z,10.10
2023-01-29T01:26:39.800Z,9.00
2023-01-29T01:29:13.464Z,8.80
2023-01-29T01:31:47.282Z,9.40
2023-01-29T01:34:22.528Z,10.80
2023-01-29T01:36:56.736Z,8.40
2023-01-29T01:39:30.881Z,10.70
2023-01-29T01:42:05.004Z,9.30
2023-01-29T01:45:01.602Z,9.80
2023-01-29T01:47:44.011Z,10.10
2023-01-29T01:50:21.596Z,10.60
2023-01-29T01:52:59.028Z,9.70
2023-01-29T01:55:35.957Z,10.60
2023-01-29T01:58:15.475Z,11.00
2023-01-29T02:00:49.547Z,12.10
2023-01-29T02:03:42.063Z,12.70
2023-01-29T02:06:33.584Z,11.00
2023-01-29T02:09:30.234Z,10.90
2023-01-29T02:12:06.283Z,11.60
2023-01-29T02:14:41.631Z,12.60
2023-01-29T02:17:16.984Z,12.20
2023-01-29T02:19:58.442Z,11.50
2023-01-29T02:22:48.850Z,11.10
2023-01-29T02:25:58.439Z,13.50
2023-01-29T02:28:49.354Z,14.00
2023-01-29T02:31:31.217Z,13.90
2023-01-29T02:34:14.118Z,11.80
2023-01-29T02:36:53.253Z,11.10
2023-01-29T02:39:42.484Z,11.80
2023-01-29T02:42:27.522Z,11.90
2023-01-29T02:45:08.198Z,11.20
2023-01-29T02:47:49.335Z,11.40
2023-01-29T02:50:27.970Z,14.10
2023-01-29T02:53:08.316Z,12.10
2023-01-29T02:55:46.503Z,12.00
2023-01-29T02:58:22.535Z,12.60
2023-01-29T03:01:00.606Z,12.30
2023-01-29T03:03:40.379Z,12.50
2023-01-29T03:06:22.762Z,12.90
2023-01-29T03:09:00.528Z,11.20
2023-01-29T03:11:38.749Z,13.80
2023-01-29T03:14:17.662Z,12.80
2023-01-29T03:16:55.136Z,13.50
2023-01-29T03:19:39.755Z,12.50
2023-01-29T03:22:22.322Z,11.80
2023-01-29T03:25:16.206Z,12.40
2023-01-29T03:28:12.793Z,13.50
2023-01-29T03:31:11.168Z,13.00
2023-01-29T03:33:54.328Z,13.20
2023-01-29T03:36:38.603Z,11.10
2023-01-29T03:39:13.759Z,12.20
2023-01-29T03:41:54.805Z,13.60
2023-01-29T03:44:38.019Z,11.10
2023-01-29T03:47:21.982Z,12.30
2023-01-29T03:50:03.758Z,13.40
2023-01-29T03:52:47.778Z,13.50
2023-01-29T03:55:27.267Z,11.00
2023-01-29T03:58:06.974Z,10.80
2023-01-29T04:00:46.256Z,13.20
2023-01-29T04:03:25.237Z,12.90
2023-01-29T04:06:10.201Z,11.10
2023-01-29T04:08:55.129Z,12.30
2023-01-29T04:11:31.161Z,11.80
2023-01-29T04:14:04.814Z,10.00
2023-01-29T04:16:42.599Z,12.60
2023-01-29T04:19:43.053Z,11.90
2023-01-29T04:22:22.333Z,11.20
2023-01-29T04:25:02.976Z,10.50
2023-01-29T04:27:45.815Z,12.50
2023-01-29T04:30:30.484Z,12.10
2023-01-29T04:33:20.121Z,13.00
2023-01-29T04:36:18.191Z,12.20
2023-01-29T04:39:04.269Z,11.00
2023-01-29T04:41:44.371Z,13.40
2023-01-29T04:44:23.715Z,13.20
2023-01-29T04:47:10.255Z,11.80
2023-01-29T04:49:48.895Z,10.50
2023-01-29T04:52:31.194Z,12.60
2023-01-29T04:55:11.323Z,11.00
2023-01-29T04:57:53.426Z,14.30
2023-01-29T05:00:32.651Z,12.80
2023-01-29T05:03:10.120Z,12.80
2023-01-29T05:05:47.200Z,12.70
2023-01-29T05:08:24.425Z,14.10
2023-01-29T05:11:00.771Z,13.50
2023-01-29T05:13:38.510Z,11.50
2023-01-29T05:16:18.623Z,12.50
2023-01-29T05:18:53.207Z,13.70
2023-01-29T05:21:28.648Z,11.60
2023-01-29T05:24:14.088Z,12.90
2023-01-29T05:27:06.592Z,12.20
2023-01-29T05:29:42.763Z,12.60
2023-01-29T05:32:17.174Z,15.70
2023-01-29T05:34:51.160Z,14.00
2023-01-29T05:37:24.729Z,13.60
2023-01-29T05:39:58.709Z,15.90
2023-01-29T05:42:32.568Z,13.60
2023-01-29T05:45:06.416Z,14.80
2023-01-29T05:47:40.013Z,14.20
2023-01-29T05:50:15.614Z,13.00
2023-01-29T05:52:49.552Z,12.10
2023-01-29T05:55:23.339Z,12.80
2023-01-29T05:57:56.964Z,13.70
2023-01-29T06:00:31.122Z,13.80
2023-01-29T06:03:05.141Z,11.20
2023-01-29T06:05:41.303Z,12.50
2023-01-29T06:08:15.196Z,14.30
2023-01-29T06:10:49.018Z,12.60
2023-01-29T06:13:23.789Z,14.50
2023-01-29T06:15:57.640Z,15.20
2023-01-29T06:18:31.452Z,14.50
2023-01-29T06:21:07.637Z,16.10
2023-01-29T06:23:42.496Z,14.00
2023-01-29T06:26:17.850Z,13.90
2023-01-29T06:28:53.939Z,14.10
2023-01-29T06:31:38.218Z,14.00
2023-01-29T06:34:16.603Z,14.70
2023-01-29T06:36:50.913Z,15.30
2023-01-29T06:39:24.651Z,17.00
2023-01-29T06:41:58.261Z,15.70
2023-01-29T06:44:32.304Z,14.50
2023-01-29T06:47:05.945Z,16.10
2023-01-29T06:49:39.235Z,14.60
2023-01-29T06:52:12.919Z,15.80
2023-01-29T06:54:46.517Z,15.10
2023-01-29T06:57:21.004Z,17.70
2023-01-29T06:59:54.814Z,15.30
2023-01-29T07:02:28.287Z,16.80
2023-01-29T07:05:02.136Z,13.90
2023-01-29T07:07:38.790Z,15.70
2023-01-29T07:10:13.808Z,15.70
2023-01-29T07:12:47.766Z,16.20
2023-01-29T07:15:22.433Z,15.90
2023-01-29T07:18:04.907Z,15.30
2023-01-29T07:20:39.607Z,16.50
2023-01-29T07:23:15.355Z,16.10
2023-01-29T07:25:50.159Z,15.20
2023-01-29T07:28:23.677Z,14.40
2023-01-29T07:31:00.854Z,13.80
2023-01-29T07:33:34.681Z,14.40
2023-01-29T07:36:11.629Z,14.10
2023-01-29T07:38:45.569Z,14.30
2023-01-29T07:41:19.664Z,14.00
2023-01-29T07:43:53.331Z,15.40
2023-01-29T07:46:27.095Z,15.00
2023-01-29T07:49:01.567Z,15.30
2023-01-29T07:51:35.524Z,15.70
2023-01-29T07:54:09.545Z,16.70
2023-01-29T07:56:43.225Z,14.80
2023-01-29T07:59:17.525Z,15.30
2023-01-29T08:01:51.173Z,13.80
2023-01-29T08:04:25.451Z,13.50
2023-01-29T08:06:58.923Z,13.70
2023-01-29T08:09:36.418Z,16.20
2023-01-29T08:12:10.660Z,14.40
2023-01-29T08:14:46.091Z,13.60
2023-01-29T08:17:19.627Z,13.60
2023-01-29T08:19:53.669Z,12.50
2023-01-29T08:22:27.377Z,13.20
2023-01-29T08:25:08.228Z,14.70
2023-01-29T08:27:43.463Z,14.70
2023-01-29T08:30:18.674Z,14.30
2023-01-29T08:32:52.332Z,13.60
2023-01-29T08:35:26.972Z,12.90
2023-01-29T08:38:21.507Z,12.90
2023-01-29T08:40:55.338Z,14.60
2023-01-29T08:43:29.138Z,13.70
2023-01-29T08:46:02.767Z,15.80
2023-01-29T08:48:39.965Z,14.70
2023-01-29T08:51:14.610Z,13.90
2023-01-29T08:53:56.883Z,15.70
2023-01-29T08:56:31.021Z,14.20
2023-01-29T08:59:04.685Z,15.30
2023-01-29T09:01:38.592Z,14.90
2023-01-29T09:04:12.275Z,15.50
2023-01-29T09:06:45.654Z,16.80
2023-01-29T09:09:20.015Z,15.80
2023-01-29T09:11:53.519Z,15.30
2023-01-29T09:14:28.047Z,18.10
2023-01-29T09:17:01.916Z,17.00
2023-01-29T09:19:35.530Z,18.70
2023-01-29T09:22:10.982Z,16.00
2023-01-29T09:24:46.166Z,15.70
2023-01-29T09:27:19.782Z,18.90
2023-01-29T09:29:53.265Z,17.40
2023-01-29T09:32:52.161Z,15.50
2023-01-29T09:35:21.754Z,19.10
2023-01-29T09:37:56.051Z,19.20
2023-01-29T09:40:40.463Z,19.30
2023-01-29T09:43:19.111Z,18.00
2023-01-29T09:48:33.752Z,17.20
2023-01-29T09:51:15.440Z,19.80
2023-01-29T09:53:53.662Z,18.90
2023-01-29T09:56:29.341Z,18.10
2023-01-29T09:59:03.251Z,18.80
2023-01-29T10:01:47.132Z,16.30
2023-01-29T10:04:46.011Z,14.60
2023-01-29T10:08:01.819Z,17.10
2023-01-29T10:10:48.705Z,18.20
2023-01-29T10:13:34.600Z,15.40
2023-01-29T10:16:30.870Z,15.00
2023-01-29T10:19:32.285Z,13.70
2023-01-29T10:22:36.459Z,15.10
2023-01-29T10:25:15.942Z,14.40
2023-01-29T10:27:53.940Z,15.10
2023-01-29T10:30:33.880Z,14.30
2023-01-29T10:33:14.572Z,14.10
2023-01-29T10:35:53.797Z,18.90
2023-01-29T10:38:45.824Z,16.20
2023-01-29T10:41:45.396Z,14.20
2023-01-29T10:44:29.390Z,14.90
2023-01-29T10:47:17.237Z,14.50
2023-01-29T10:50:13.586Z,17.00
2023-01-29T10:53:01.265Z,16.40
2023-01-29T10:55:48.936Z,16.50
2023-01-29T10:58:33.578Z,16.70
2023-01-29T11:01:07.713Z,16.50
2023-01-29T11:03:42.092Z,15.70
2023-01-29T11:06:23.984Z,15.20
2023-01-29T11:09:03.296Z,15.30
2023-01-29T11:11:43.128Z,15.90
2023-01-29T11:14:23.857Z,17.80
2023-01-29T11:16:58.632Z,16.10
2023-01-29T11:19:43.758Z,15.90
2023-01-29T11:22:22.664Z,17.10
2023-01-29T11:25:17.717Z,14.30
2023-01-29T11:27:54.549Z,18.40
2023-01-29T11:30:32.259Z,17.40
2023-01-29T11:33:19.200Z,14.50
2023-01-29T11:35:54.205Z,16.20
2023-01-29T11:38:30.177Z,17.30
2023-01-29T11:41:09.651Z,15.60
2023-01-29T11:43:44.338Z,17.10
2023-01-29T11:46:20.046Z,15.10
2023-01-29T11:48:59.228Z,13.80
2023-01-29T11:51:43.432Z,18.00
2023-01-29T11:54:21.447Z,16.00
2023-01-29T11:56:56.012Z,16.30
2023-01-29T11:59:44.789Z,14.80
2023-01-29T12:02:31.142Z,14.50
2023-01-29T12:05:15.465Z,14.30
2023-01-29T12:07:55.058Z,16.50
2023-01-29T12:10:38.384Z,18.20
2023-01-29T12:13:27.643Z,14.20
2023-01-29T12:16:20.857Z,14.50
2023-01-29T12:18:58.833Z,16.60
2023-01-29T12:21:39.326Z,16.90
2023-01-29T12:24:24.907Z,16.70
2023-01-29T12:27:08.343Z,16.50
2023-01-29T12:29:49.382Z,15.10
2023-01-29T12:32:34.787Z,15.80
2023-01-29T12:35:17.239Z,18.60
2023-01-29T12:37:59.500Z,17.20
2023-01-29T12:40:42.405Z,17.60
2023-01-29T12:43:20.665Z,18.30
2023-01-29T12:45:59.805Z,19.60
2023-01-29T12:48:38.874Z,16.00
2023-01-29T12:51:18.144Z,16.60
2023-01-29T12:53:58.764Z,15.70
2023-01-29T12:56:37.328Z,18.30
2023-01-29T12:59:21.637Z,14.70
2023-01-29T13:02:00.142Z,17.10
2023-01-29T13:04:42.919Z,16.90
2023-01-29T13:07:24.068Z,17.00
2023-01-29T13:10:06.630Z,19.10
2023-01-29T13:12:51.590Z,18.40
2023-01-29T13:15:31.833Z,20.60
2023-01-29T13:18:35.309Z,18.70
2023-01-29T13:21:13.812Z,19.70
2023-01-29T13:23:56.605Z,18.50
2023-01-29T13:26:31.245Z,19.80
2023-01-29T13:29:05.908Z,20.10
2023-01-29T13:31:49.471Z,21.40
2023-01-29T13:34:28.830Z,18.70
2023-01-29T13:37:11.834Z,20.90
2023-01-29T13:39:52.462Z,19.20
2023-01-29T13:42:41.867Z,18.80
2023-01-29T13:45:25.471Z,20.30
2023-01-29T13:48:23.444Z,19.70
2023-01-29T13:51:04.070Z,19.70
2023-01-29T13:53:42.987Z,20.50
2023-01-29T13:56:59.478Z,19.10
2023-01-29T13:59:55.666Z,20.50
2023-01-29T14:02:31.878Z,19.60
2023-01-29T14:05:45.993Z,21.50
2023-01-29T14:08:42.457Z,23.40
2023-01-29T14:11:38.126Z,21.80
2023-01-29T14:14:42.868Z,23.00
2023-01-29T14:17:19.173Z,22.90
2023-01-29T14:19:55.057Z,24.30
2023-01-29T14:22:33.889Z,23.40
2023-01-29T14:25:23.547Z,20.80
2023-01-29T14:27:58.496Z,27.30
2023-01-29T14:30:37.561Z,23.80
2023-01-29T14:33:30.393Z,23.00
2023-01-29T14:36:14.020Z,21.80
2023-01-29T14:38:57.430Z,20.80
2023-01-29T14:41:37.774Z,19.60
2023-01-29T14:44:48.229Z,22.70
2023-01-29T14:48:07.785Z,22.80
2023-01-29T14:50:59.651Z,21.90
2023-01-29T14:53:47.695Z,21.90
2023-01-29T14:56:29.295Z,24.10
2023-01-29T14:59:18.163Z,24.10
2023-01-29T15:01:58.169Z,20.20
2023-01-29T15:04:46.377Z,21.70
2023-01-29T15:07:32.341Z,22.70
2023-01-29T15:10:23.059Z,20.30
2023-01-29T15:13:03.809Z,21.00
2023-01-29T15:15:45.343Z,19.60
2023-01-29T15:18:22.748Z,24.80
2023-01-29T15:21:08.903Z,22.00
2023-01-29T15:23:45.015Z,22.00
2023-01-29T15:26:26.993Z,31.80
2023-01-29T15:29:06.327Z,20.90
2023-01-29T15:31:45.178Z,21.20
2023-01-29T15:34:22.196Z,19.00
2023-01-29T15:36:57.041Z,19.70
2023-01-29T15:39:32.612Z,22.60
2023-01-29T15:42:24.225Z,20.00
2023-01-29T15:45:03.662Z,21.50
2023-01-29T15:47:40.833Z,22.30
2023-01-29T15:50:17.481Z,23.20
2023-01-29T15:52:56.912Z,26.10
2023-01-29T15:55:34.956Z,26.10
2023-01-29T15:58:14.789Z,24.90
2023-01-29T16:00:59.084Z,24.90
2023-01-29T16:03:39.921Z,22.80
2023-01-29T16:06:19.159Z,24.70
2023-01-29T16:08:56.315Z,25.50
2023-01-29T16:11:34.231Z,24.50
2023-01-29T16:14:11.192Z,27.50
2023-01-29T16:16:49.165Z,25.90
2023-01-29T16:19:31.806Z,25.10
2023-01-29T16:22:09.731Z,26.70
2023-01-29T16:24:48.848Z,26.80
2023-01-29T16:27:28.194Z,26.00
2023-01-29T16:30:03.695Z,26.20
2023-01-29T16:32:43.187Z,26.40
2023-01-29T16:35:21.952Z,28.50
2023-01-29T16:38:05.291Z,26.50
2023-01-29T16:41:03.786Z,27.00
2023-01-29T16:44:03.468Z,29.90
2023-01-29T16:46:48.229Z,29.20
2023-01-29T16:49:59.165Z,30.60
2023-01-29T16:52:39.489Z,30.70
2023-01-29T16:55:26.520Z,32.30
2023-01-29T16:58:14.803Z,30.60
2023-01-29T17:00:58.368Z,31.00
2023-01-29T17:03:38.017Z,30.60
2023-01-29T17:06:21.646Z,31.10
2023-01-29T17:09:00.521Z,28.60
2023-01-29T17:11:42.446Z,32.00
2023-01-29T17:14:26.545Z,30.80
2023-01-29T17:17:09.094Z,29.60
2023-01-29T17:19:45.001Z,29.40
2023-01-29T17:22:23.186Z,28.30
2023-01-29T17:25:01.252Z,26.10
2023-01-29T17:27:44.510Z,28.20
2023-01-29T17:30:24.277Z,28.50
2023-01-29T17:33:11.770Z,30.10
2023-01-29T17:35:49.313Z,32.30
2023-01-29T17:38:31.433Z,32.00
2023-01-29T17:41:17.636Z,29.90
2023-01-29T17:43:57.901Z,29.70
2023-01-29T17:46:37.216Z,28.60
2023-01-29T17:49:28.749Z,30.70
2023-01-29T17:52:10.951Z,33.60
2023-01-29T17:54:46.722Z,29.80
2023-01-29T17:57:23.213Z,30.00
2023-01-29T18:00:14.364Z,30.10
2023-01-29T18:03:00.988Z,27.20
2023-01-29T18:05:43.750Z,30.80
2023-01-29T18:08:33.559Z,29.70
2023-01-29T18:11:14.830Z,30.00
2023-01-29T18:13:53.516Z,27.70
2023-01-29T18:16:38.763Z,30.90
2023-01-29T18:19:22.152Z,32.70
2023-01-29T18:21:59.319Z,32.20
2023-01-29T18:24:36.612Z,34.10
2023-01-29T18:27:13.068Z,29.70
2023-01-29T18:29:54.324Z,30.70
2023-01-29T18:32:30.939Z,30.60
2023-01-29T18:35:11.472Z,32.20
2023-01-29T18:37:50.359Z,32.80
2023-01-29T18:40:30.407Z,28.00
2023-01-29T18:43:13.307Z,30.20
2023-01-29T18:45:52.742Z,29.20
2023-01-29T18:48:31.949Z,30.40
2023-01-29T18:51:10.593Z,28.90
2023-01-29T18:53:51.996Z,26.50
2023-01-29T18:56:31.327Z,29.50
2023-01-29T18:59:06.807Z,30.30
2023-01-29T19:01:47.576Z,28.80
2023-01-29T19:04:25.191Z,29.30
2023-01-29T19:07:02.039Z,31.70
2023-01-29T19:09:47.522Z,28.70
2023-01-29T19:12:25.667Z,30.00
2023-01-29T19:15:06.170Z,27.90
2023-01-29T19:17:46.585Z,31.80
2023-01-29T19:20:28.143Z,30.30
2023-01-29T19:23:04.996Z,33.10
2023-01-29T19:25:45.891Z,28.40
2023-01-29T19:28:26.229Z,31.10
2023-01-29T19:31:08.222Z,29.80
2023-01-29T19:33:48.237Z,30.00
2023-01-29T19:36:31.142Z,29.20
2023-01-29T19:39:17.556Z,29.90
2023-01-29T19:41:54.409Z,27.40
2023-01-29T19:44:31.704Z,32.50
2023-01-29T19:47:08.828Z,32.80
2023-01-29T19:49:48.870Z,32.20
2023-01-29T19:52:50.894Z,30.60
2023-01-29T19:55:30.831Z,39.30
2023-01-29T19:58:12.822Z,30.50
2023-01-29T20:01:00.574Z,28.90
2023-01-29T20:03:39.073Z,33.20
2023-01-29T20:06:16.579Z,31.70
2023-01-29T20:08:53.661Z,34.70
2023-01-29T20:11:38.189Z,34.90
2023-01-29T20:14:22.619Z,30.20
2023-01-29T20:17:01.631Z,29.50
2023-01-29T20:19:39.140Z,29.10
2023-01-29T20:22:17.788Z,30.00
2023-01-29T20:27:41.238Z,30.20
2023-01-29T20:30:19.750Z,28.50
2023-01-29T20:32:58.509Z,27.50
2023-01-29T20:35:43.097Z,32.90
2023-01-29T20:38:26.981Z,36.90
2023-01-29T20:41:10.279Z,31.70
2023-01-29T20:43:51.452Z,30.90
2023-01-29T20:46:29.783Z,28.40
2023-01-29T20:49:07.878Z,30.00
2023-01-29T20:51:45.865Z,32.40
2023-01-29T20:54:26.149Z,30.90
2023-01-29T20:57:02.221Z,36.00
2023-01-29T20:59:39.479Z,31.50
2023-01-29T21:02:19.420Z,31.10
2023-01-29T21:04:55.725Z,30.10
2023-01-29T21:07:32.032Z,28.60
2023-01-29T21:10:12.358Z,31.20
2023-01-29T21:13:03.394Z,32.50
2023-01-29T21:15:41.342Z,33.60
2023-01-29T21:18:19.580Z,33.10
2023-01-29T21:20:56.330Z,32.70
2023-01-29T21:23:33.140Z,30.60
2023-01-29T21:26:10.444Z,30.80
2023-01-29T21:28:47.582Z,33.30
2023-01-29T21:31:23.687Z,32.20
2023-01-29T21:33:59.238Z,31.80
2023-01-29T21:36:34.262Z,29.40
2023-01-29T21:39:18.416Z,28.50
2023-01-29T21:42:11.841Z,30.10
2023-01-29T21:44:46.956Z,30.90
2023-01-29T21:47:22.821Z,30.70
2023-01-29T21:49:57.234Z,31.50
2023-01-29T21:52:31.753Z,30.20
2023-01-29T21:55:06.355Z,28.60
2023-01-29T21:57:43.206Z,32.80
2023-01-29T22:00:19.409Z,30.40
2023-01-29T22:02:53.924Z,30.20
2023-01-29T22:05:29.573Z,28.30
2023-01-29T22:08:05.396Z,27.40
2023-01-29T22:10:39.516Z,29.70
2023-01-29T22:13:14.770Z,28.10
2023-01-29T22:15:48.610Z,28.70
2023-01-29T22:18:22.282Z,29.30
2023-01-29T22:20:58.381Z,32.00
2023-01-29T22:23:32.867Z,33.20
2023-01-29T22:26:10.468Z,32.50
2023-01-29T22:28:44.627Z,29.10
2023-01-29T22:31:18.258Z,30.90
2023-01-29T22:33:53.625Z,31.80
2023-01-29T22:36:27.859Z,31.30
2023-01-29T22:39:01.601Z,31.50
2023-01-29T22:41:35.174Z,32.20
2023-01-29T22:44:10.451Z,34.10
2023-01-29T22:46:44.420Z,29.70
2023-01-29T22:49:17.929Z,32.50
2023-01-29T22:52:10.449Z,32.30
2023-01-29T22:54:45.830Z,30.90
2023-01-29T22:57:20.138Z,33.40
2023-01-29T22:59:55.856Z,31.50
2023-01-29T23:02:29.638Z,30.40
2023-01-29T23:05:04.119Z,33.60
2023-01-29T23:07:37.884Z,31.10
2023-01-29T23:10:15.335Z,30.10
2023-01-29T23:12:49.447Z,30.10
2023-01-29T23:15:23.157Z,27.20
2023-01-29T23:17:56.818Z,29.90
2023-01-29T23:20:30.871Z,27.80
2023-01-29T23:23:04.775Z,29.10
2023-01-29T23:25:55.846Z,30.00
2023-01-29T23:28:29.742Z,30.20
2023-01-29T23:31:03.697Z,29.60
2023-01-29T23:33:37.521Z,28.90
2023-01-29T23:36:12.036Z,29.50
2023-01-29T23:38:45.670Z,31.80
2023-01-29T23:41:19.229Z,28.40
2023-01-29T23:43:53.078Z,30.00
2023-01-29T23:46:27.251Z,27.00
2023-01-29T23:49:01.552Z,27.70
2023-01-29T23:51:35.687Z,26.00
2023-01-29T23:54:09.845Z,22.30
2023-01-29T23:56:43.928Z,26.00
2023-01-29T23:59:18.043Z,24.60
